sensor_id;sensor_type;location;lat;lon;timestamp;noise_LAeq;noise_LA_min;noise_LA_max;noise_LA01;noise_LA95
67304;Laerm;57660;51.436;5.978;2023-04-19T00:00:07;45.99;30.14;59.23;;
67304;Laerm;57660;51.436;5.978;2023-04-19T00:00:17;38.01;30.16;49.28;;
67304;Laerm;57660;51.436;5.978;2023-04-19T00:00:29;31.05;29.47;33.23;;
67304;Laerm;57660;51.436;5.978;2023-04-19T00:00:40;31.22;29.80;33.13;;
67304;Laerm;57660;51.436;5.978;2023-04-19T00:00:50;30.75;29.24;32.69;;
67304;Laerm;57660;51.436;5.978;2023-04-19T00:01:01;30.70;29.39;38.52;;
67304;Laerm;57660;51.436;5.978;2023-04-19T00:01:18;30.91;29.69;33.19;;
67304;Laerm;57660;51.436;5.978;2023-04-19T00:01:29;35.24;29.10;48.80;;
67304;Laerm;57660;51.436;5.978;2023-04-19T00:01:39;47.02;41.44;50.93;;
67304;Laerm;57660;51.436;5.978;2023-04-19T00:01:50;44.26;37.34;50.14;;
67304;Laerm;57660;51.436;5.978;2023-04-19T00:02:10;44.55;37.42;50.75;;
67304;Laerm;57660;51.436;5.978;2023-04-19T00:02:22;64.30;39.28;77.26;;
67304;Laerm;57660;51.436;5.978;2023-04-19T00:02:33;73.21;68.43;77.77;;
67304;Laerm;57660;51.436;5.978;2023-04-19T00:02:44;74.95;69.16;80.32;;
67304;Laerm;57660;51.436;5.978;2023-04-19T00:02:54;67.76;45.77;75.93;;
67304;Laerm;57660;51.436;5.978;2023-04-19T00:03:05;45.84;41.46;52.04;;
67304;Laerm;57660;51.436;5.978;2023-04-19T00:03:15;39.41;35.23;45.30;;
67304;Laerm;57660;51.436;5.978;2023-04-19T00:03:28;35.97;33.87;38.17;;
67304;Laerm;57660;51.436;5.978;2023-04-19T00:03:39;33.63;31.94;36.95;;
67304;Laerm;57660;51.436;5.978;2023-04-19T00:03:52;35.76;33.21;38.77;;
67304;Laerm;57660;51.436;5.978;2023-04-19T00:04:02;33.00;30.62;35.49;;
67304;Laerm;57660;51.436;5.978;2023-04-19T00:04:13;32.37;30.74;34.54;;
67304;Laerm;57660;51.436;5.978;2023-04-19T00:04:23;31.66;29.85;33.27;;
67304;Laerm;57660;51.436;5.978;2023-04-19T00:04:34;31.23;29.84;32.58;;
67304;Laerm;57660;51.436;5.978;2023-04-19T00:04:47;32.92;29.58;49.30;;
67304;Laerm;57660;51.436;5.978;2023-04-19T00:05:03;33.00;30.50;41.77;;
67304;Laerm;57660;51.436;5.978;2023-04-19T00:05:14;31.96;30.02;33.87;;
67304;Laerm;57660;51.436;5.978;2023-04-19T00:05:24;31.91;29.78;38.82;;
67304;Laerm;57660;51.436;5.978;2023-04-19T00:05:35;32.35;30.40;38.49;;
67304;Laerm;57660;51.436;5.978;2023-04-19T00:05:56;32.95;30.45;38.65;;
67304;Laerm;57660;51.436;5.978;2023-04-19T00:06:09;33.27;30.34;38.30;;
67304;Laerm;57660;51.436;5.978;2023-04-19T00:06:22;32.61;30.71;35.62;;
67304;Laerm;57660;51.436;5.978;2023-04-19T00:06:33;31.38;29.80;34.19;;
67304;Laerm;57660;51.436;5.978;2023-04-19T00:06:44;31.60;30.00;33.50;;
67304;Laerm;57660;51.436;5.978;2023-04-19T00:06:55;31.60;30.07;34.36;;
67304;Laerm;57660;51.436;5.978;2023-04-19T00:07:06;31.31;29.68;32.80;;
67304;Laerm;57660;51.436;5.978;2023-04-19T00:07:16;31.40;30.10;33.33;;
67304;Laerm;57660;51.436;5.978;2023-04-19T00:07:27;31.27;29.53;33.99;;
67304;Laerm;57660;51.436;5.978;2023-04-19T00:07:38;30.94;29.24;38.17;;
67304;Laerm;57660;51.436;5.978;2023-04-19T00:07:49;30.44;29.16;31.51;;
67304;Laerm;57660;51.436;5.978;2023-04-19T00:07:59;30.58;28.87;32.31;;
67304;Laerm;57660;51.436;5.978;2023-04-19T00:08:12;30.38;28.80;31.54;;
67304;Laerm;57660;51.436;5.978;2023-04-19T00:08:23;30.33;29.11;31.92;;
67304;Laerm;57660;51.436;5.978;2023-04-19T00:08:33;30.47;29.21;31.85;;
67304;Laerm;57660;51.436;5.978;2023-04-19T00:08:49;30.15;28.81;31.35;;
67304;Laerm;57660;51.436;5.978;2023-04-19T00:09:00;30.09;29.00;31.25;;
67304;Laerm;57660;51.436;5.978;2023-04-19T00:09:10;30.11;28.78;31.14;;
67304;Laerm;57660;51.436;5.978;2023-04-19T00:09:23;30.03;29.00;31.18;;
67304;Laerm;57660;51.436;5.978;2023-04-19T00:09:34;30.05;28.97;31.61;;
67304;Laerm;57660;51.436;5.978;2023-04-19T00:09:44;30.18;28.90;31.66;;
67304;Laerm;57660;51.436;5.978;2023-04-19T00:09:57;30.41;29.04;32.68;;
67304;Laerm;57660;51.436;5.978;2023-04-19T00:10:08;31.02;29.25;43.01;;
67304;Laerm;57660;51.436;5.978;2023-04-19T00:10:18;30.33;29.28;32.12;;
67304;Laerm;57660;51.436;5.978;2023-04-19T00:10:32;30.49;29.28;32.10;;
67304;Laerm;57660;51.436;5.978;2023-04-19T00:10:44;46.18;29.86;49.81;;
67304;Laerm;57660;51.436;5.978;2023-04-19T00:10:55;43.83;39.20;48.43;;
67304;Laerm;57660;51.436;5.978;2023-04-19T00:11:08;42.41;36.38;46.30;;
67304;Laerm;57660;51.436;5.978;2023-04-19T00:11:18;49.99;38.14;63.93;;
67304;Laerm;57660;51.436;5.978;2023-04-19T00:11:29;73.21;62.98;77.76;;
67304;Laerm;57660;51.436;5.978;2023-04-19T00:11:39;70.96;68.47;73.05;;
67304;Laerm;57660;51.436;5.978;2023-04-19T00:11:50;65.89;42.79;73.71;;
67304;Laerm;57660;51.436;5.978;2023-04-19T00:12:01;42.77;35.34;48.87;;
67304;Laerm;57660;51.436;5.978;2023-04-19T00:12:11;35.99;33.16;38.94;;
67304;Laerm;57660;51.436;5.978;2023-04-19T00:12:22;34.57;32.00;39.57;;
67304;Laerm;57660;51.436;5.978;2023-04-19T00:12:32;33.01;31.44;35.25;;
67304;Laerm;57660;51.436;5.978;2023-04-19T00:12:42;32.03;30.08;38.25;;
67304;Laerm;57660;51.436;5.978;2023-04-19T00:13:00;31.36;29.84;33.80;;
67304;Laerm;57660;51.436;5.978;2023-04-19T00:13:11;31.07;29.61;32.35;;
67304;Laerm;57660;51.436;5.978;2023-04-19T00:13:24;31.09;29.50;32.32;;
67304;Laerm;57660;51.436;5.978;2023-04-19T00:13:35;30.47;29.24;33.76;;
67304;Laerm;57660;51.436;5.978;2023-04-19T00:13:45;30.64;29.30;32.13;;
67304;Laerm;57660;51.436;5.978;2023-04-19T00:13:58;30.61;29.35;31.80;;
67304;Laerm;57660;51.436;5.978;2023-04-19T00:14:08;31.27;29.58;32.85;;
67304;Laerm;57660;51.436;5.978;2023-04-19T00:14:19;31.36;30.05;33.18;;
67304;Laerm;57660;51.436;5.978;2023-04-19T00:14:32;31.10;29.91;32.25;;
67304;Laerm;57660;51.436;5.978;2023-04-19T00:14:45;31.45;29.75;33.14;;
67304;Laerm;57660;51.436;5.978;2023-04-19T00:14:55;32.51;30.20;36.90;;
67304;Laerm;57660;51.436;5.978;2023-04-19T00:15:05;32.01;29.99;34.11;;
67304;Laerm;57660;51.436;5.978;2023-04-19T00:15:16;31.92;29.97;35.87;;
67304;Laerm;57660;51.436;5.978;2023-04-19T00:15:26;30.80;29.60;32.59;;
67304;Laerm;57660;51.436;5.978;2023-04-19T00:15:37;31.03;29.38;40.02;;
67304;Laerm;57660;51.436;5.978;2023-04-19T00:15:58;31.88;29.99;34.00;;
67304;Laerm;57660;51.436;5.978;2023-04-19T00:16:08;33.20;29.90;39.81;;
67304;Laerm;57660;51.436;5.978;2023-04-19T00:16:24;30.64;29.31;31.95;;
67304;Laerm;57660;51.436;5.978;2023-04-19T00:16:35;30.57;29.37;32.19;;
67304;Laerm;57660;51.436;5.978;2023-04-19T00:16:45;30.70;29.40;32.12;;
67304;Laerm;57660;51.436;5.978;2023-04-19T00:16:56;30.84;29.46;32.21;;
67304;Laerm;57660;51.436;5.978;2023-04-19T00:17:09;30.53;29.26;31.67;;
67304;Laerm;57660;51.436;5.978;2023-04-19T00:17:20;30.90;29.25;32.29;;
67304;Laerm;57660;51.436;5.978;2023-04-19T00:17:34;30.94;29.54;32.37;;
67304;Laerm;57660;51.436;5.978;2023-04-19T00:17:44;35.39;29.52;48.30;;
67304;Laerm;57660;51.436;5.978;2023-04-19T00:17:55;31.14;29.19;37.93;;
67304;Laerm;57660;51.436;5.978;2023-04-19T00:18:05;30.60;29.25;31.98;;
67304;Laerm;57660;51.436;5.978;2023-04-19T00:18:19;30.72;29.52;33.91;;
67304;Laerm;57660;51.436;5.978;2023-04-19T00:18:29;31.45;29.60;42.92;;
67304;Laerm;57660;51.436;5.978;2023-04-19T00:18:40;30.46;29.23;31.68;;
67304;Laerm;57660;51.436;5.978;2023-04-19T00:18:50;30.45;29.06;32.00;;
67304;Laerm;57660;51.436;5.978;2023-04-19T00:19:03;30.25;28.61;31.37;;
67304;Laerm;57660;51.436;5.978;2023-04-19T00:19:14;30.34;28.89;31.47;;
67304;Laerm;57660;51.436;5.978;2023-04-19T00:19:29;30.31;29.09;31.83;;
67304;Laerm;57660;51.436;5.978;2023-04-19T00:19:39;30.08;29.05;31.16;;
67304;Laerm;57660;51.436;5.978;2023-04-19T00:19:50;30.13;29.08;31.60;;
67304;Laerm;57660;51.436;5.978;2023-04-19T00:20:08;29.93;28.93;31.23;;
67304;Laerm;57660;51.436;5.978;2023-04-19T00:20:19;30.02;28.69;31.95;;
67304;Laerm;57660;51.436;5.978;2023-04-19T00:20:30;30.24;29.04;36.29;;
67304;Laerm;57660;51.436;5.978;2023-04-19T00:20:40;30.21;28.95;31.65;;
67304;Laerm;57660;51.436;5.978;2023-04-19T00:20:50;30.11;28.74;31.91;;
67304;Laerm;57660;51.436;5.978;2023-04-19T00:21:01;30.18;28.95;31.93;;
67304;Laerm;57660;51.436;5.978;2023-04-19T00:21:17;30.14;28.52;32.11;;
67304;Laerm;57660;51.436;5.978;2023-04-19T00:21:27;30.40;28.99;38.67;;
67304;Laerm;57660;51.436;5.978;2023-04-19T00:21:38;30.25;29.00;31.34;;
67304;Laerm;57660;51.436;5.978;2023-04-19T00:21:48;30.37;29.05;31.56;;
67304;Laerm;57660;51.436;5.978;2023-04-19T00:21:58;30.54;29.41;36.19;;
67304;Laerm;57660;51.436;5.978;2023-04-19T00:22:11;30.40;29.32;31.51;;
67304;Laerm;57660;51.436;5.978;2023-04-19T00:22:21;30.52;29.07;32.01;;
67304;Laerm;57660;51.436;5.978;2023-04-19T00:22:31;30.86;29.36;33.41;;
67304;Laerm;57660;51.436;5.978;2023-04-19T00:22:42;31.76;29.57;39.33;;
67304;Laerm;57660;51.436;5.978;2023-04-19T00:22:52;30.87;29.61;32.62;;
67304;Laerm;57660;51.436;5.978;2023-04-19T00:23:05;32.59;29.91;42.86;;
67304;Laerm;57660;51.436;5.978;2023-04-19T00:23:15;31.30;29.97;33.39;;
67304;Laerm;57660;51.436;5.978;2023-04-19T00:23:26;31.02;29.84;32.18;;
67304;Laerm;57660;51.436;5.978;2023-04-19T00:23:36;36.54;29.77;49.36;;
67304;Laerm;57660;51.436;5.978;2023-04-19T00:23:49;30.90;29.21;33.03;;
67304;Laerm;57660;51.436;5.978;2023-04-19T00:24:01;30.77;29.28;32.09;;
67304;Laerm;57660;51.436;5.978;2023-04-19T00:24:11;30.91;29.67;32.20;;
67304;Laerm;57660;51.436;5.978;2023-04-19T00:24:24;30.62;29.29;32.07;;
67304;Laerm;57660;51.436;5.978;2023-04-19T00:24:35;30.26;29.21;31.16;;
67304;Laerm;57660;51.436;5.978;2023-04-19T00:24:47;30.31;28.79;31.58;;
67304;Laerm;57660;51.436;5.978;2023-04-19T00:24:58;30.24;29.11;31.95;;
67304;Laerm;57660;51.436;5.978;2023-04-19T00:25:08;30.23;28.69;32.76;;
67304;Laerm;57660;51.436;5.978;2023-04-19T00:25:18;30.21;28.86;32.38;;
67304;Laerm;57660;51.436;5.978;2023-04-19T00:25:29;30.49;29.03;35.78;;
67304;Laerm;57660;51.436;5.978;2023-04-19T00:25:40;30.39;29.10;35.27;;
67304;Laerm;57660;51.436;5.978;2023-04-19T00:25:51;30.50;29.23;31.92;;
67304;Laerm;57660;51.436;5.978;2023-04-19T00:26:02;30.47;29.01;33.82;;
67304;Laerm;57660;51.436;5.978;2023-04-19T00:26:13;30.39;29.18;31.77;;
67304;Laerm;57660;51.436;5.978;2023-04-19T00:26:24;30.10;28.52;31.17;;
67304;Laerm;57660;51.436;5.978;2023-04-19T00:26:38;30.54;29.27;32.35;;
67304;Laerm;57660;51.436;5.978;2023-04-19T00:26:51;30.33;28.93;31.85;;
67304;Laerm;57660;51.436;5.978;2023-04-19T00:27:01;30.43;29.34;31.80;;
67304;Laerm;57660;51.436;5.978;2023-04-19T00:27:12;30.69;29.15;31.90;;
67304;Laerm;57660;51.436;5.978;2023-04-19T00:27:23;30.88;29.76;32.62;;
67304;Laerm;57660;51.436;5.978;2023-04-19T00:27:33;31.02;29.42;33.45;;
67304;Laerm;57660;51.436;5.978;2023-04-19T00:27:47;33.99;30.33;45.12;;
67304;Laerm;57660;51.436;5.978;2023-04-19T00:27:57;30.88;29.33;32.59;;
67304;Laerm;57660;51.436;5.978;2023-04-19T00:28:08;30.94;29.04;32.59;;
67304;Laerm;57660;51.436;5.978;2023-04-19T00:28:26;31.10;29.67;32.49;;
67304;Laerm;57660;51.436;5.978;2023-04-19T00:28:36;31.39;29.70;34.06;;
67304;Laerm;57660;51.436;5.978;2023-04-19T00:28:47;30.69;29.62;32.55;;
67304;Laerm;57660;51.436;5.978;2023-04-19T00:28:57;30.75;29.14;32.09;;
67304;Laerm;57660;51.436;5.978;2023-04-19T00:29:07;30.69;29.39;32.06;;
67304;Laerm;57660;51.436;5.978;2023-04-19T00:29:18;30.65;29.38;31.83;;
67304;Laerm;57660;51.436;5.978;2023-04-19T00:29:31;35.46;29.35;49.28;;
67304;Laerm;57660;51.436;5.978;2023-04-19T00:29:44;31.33;29.20;38.51;;
67304;Laerm;57660;51.436;5.978;2023-04-19T00:30:00;35.76;30.64;49.56;;
67304;Laerm;57660;51.436;5.978;2023-04-19T00:30:11;33.41;30.30;45.75;;
67304;Laerm;57660;51.436;5.978;2023-04-19T00:30:21;37.14;30.87;43.08;;
67304;Laerm;57660;51.436;5.978;2023-04-19T00:30:37;36.61;30.24;49.64;;
67304;Laerm;57660;51.436;5.978;2023-04-19T00:30:48;32.32;29.81;42.61;;
67304;Laerm;57660;51.436;5.978;2023-04-19T00:30:58;33.15;29.71;44.49;;
67304;Laerm;57660;51.436;5.978;2023-04-19T00:31:08;47.11;30.93;61.50;;
67304;Laerm;57660;51.436;5.978;2023-04-19T00:31:19;32.51;30.22;36.98;;
67304;Laerm;57660;51.436;5.978;2023-04-19T00:31:29;32.68;29.68;40.67;;
67304;Laerm;57660;51.436;5.978;2023-04-19T00:31:39;34.03;29.91;43.51;;
67304;Laerm;57660;51.436;5.978;2023-04-19T00:31:49;32.10;29.83;35.92;;
67304;Laerm;57660;51.436;5.978;2023-04-19T00:32:02;32.82;30.12;39.56;;
67304;Laerm;57660;51.436;5.978;2023-04-19T00:32:22;32.76;30.12;42.41;;
67304;Laerm;57660;51.436;5.978;2023-04-19T00:32:35;33.07;30.08;48.80;;
67304;Laerm;57660;51.436;5.978;2023-04-19T00:32:45;32.46;30.00;42.65;;
67304;Laerm;57660;51.436;5.978;2023-04-19T00:32:58;32.87;30.24;36.63;;
67304;Laerm;57660;51.436;5.978;2023-04-19T00:33:08;31.94;30.06;34.34;;
67304;Laerm;57660;51.436;5.978;2023-04-19T00:33:21;32.46;30.24;39.84;;
67304;Laerm;57660;51.436;5.978;2023-04-19T00:33:34;33.08;30.26;44.14;;
67304;Laerm;57660;51.436;5.978;2023-04-19T00:33:44;46.99;41.90;50.21;;
67304;Laerm;57660;51.436;5.978;2023-04-19T00:33:55;44.61;38.39;49.71;;
67304;Laerm;57660;51.436;5.978;2023-04-19T00:34:05;44.82;39.14;49.30;;
67304;Laerm;57660;51.436;5.978;2023-04-19T00:34:18;46.97;38.39;57.65;;
67304;Laerm;57660;51.436;5.978;2023-04-19T00:34:28;75.73;56.28;82.96;;
67304;Laerm;57660;51.436;5.978;2023-04-19T00:34:45;71.66;57.43;78.09;;
67304;Laerm;57660;51.436;5.978;2023-04-19T00:34:55;46.52;35.50;57.98;;
67304;Laerm;57660;51.436;5.978;2023-04-19T00:35:05;36.70;33.94;41.15;;
67304;Laerm;57660;51.436;5.978;2023-04-19T00:35:19;34.41;32.31;37.96;;
67304;Laerm;57660;51.436;5.978;2023-04-19T00:35:29;35.26;32.56;41.10;;
67304;Laerm;57660;51.436;5.978;2023-04-19T00:35:58;39.37;33.15;49.56;;
67304;Laerm;57660;51.436;5.978;2023-04-19T00:36:08;46.18;36.80;51.19;;
67304;Laerm;57660;51.436;5.978;2023-04-19T00:36:19;43.95;38.29;50.60;;
67304;Laerm;57660;51.436;5.978;2023-04-19T00:36:32;44.39;38.30;50.48;;
67304;Laerm;57660;51.436;5.978;2023-04-19T00:36:43;54.23;42.10;66.04;;
67304;Laerm;57660;51.436;5.978;2023-04-19T00:36:53;78.99;64.98;83.55;;
67304;Laerm;57660;51.436;5.978;2023-04-19T00:37:03;79.26;74.54;84.23;;
67304;Laerm;57660;51.436;5.978;2023-04-19T00:37:14;73.79;47.14;80.28;;
67304;Laerm;57660;51.436;5.978;2023-04-19T00:37:30;44.15;39.70;48.91;;
67304;Laerm;57660;51.436;5.978;2023-04-19T00:37:45;42.97;31.26;56.91;;
67304;Laerm;57660;51.436;5.978;2023-04-19T00:37:55;45.76;30.77;51.36;;
67304;Laerm;57660;51.436;5.978;2023-04-19T00:38:09;46.45;39.55;50.99;;
67304;Laerm;57660;51.436;5.978;2023-04-19T00:38:22;43.90;36.35;50.86;;
67304;Laerm;57660;51.436;5.978;2023-04-19T00:38:32;46.65;38.19;53.30;;
67304;Laerm;57660;51.436;5.978;2023-04-19T00:38:42;74.03;52.88;80.16;;
67304;Laerm;57660;51.436;5.978;2023-04-19T00:38:53;77.40;72.33;83.07;;
67304;Laerm;57660;51.436;5.978;2023-04-19T00:39:09;64.42;45.13;74.67;;
67304;Laerm;57660;51.436;5.978;2023-04-19T00:39:19;42.49;35.91;50.46;;
67304;Laerm;57660;51.436;5.978;2023-04-19T00:39:29;37.32;33.56;40.50;;
67304;Laerm;57660;51.436;5.978;2023-04-19T00:39:41;33.56;31.38;35.88;;
67304;Laerm;57660;51.436;5.978;2023-04-19T00:39:57;32.99;31.19;34.99;;
67304;Laerm;57660;51.436;5.978;2023-04-19T00:40:10;33.23;30.23;41.46;;
67304;Laerm;57660;51.436;5.978;2023-04-19T00:40:21;31.89;30.02;42.41;;
67304;Laerm;57660;51.436;5.978;2023-04-19T00:40:33;31.43;30.05;32.96;;
67304;Laerm;57660;51.436;5.978;2023-04-19T00:40:44;30.91;29.31;34.61;;
67304;Laerm;57660;51.436;5.978;2023-04-19T00:40:56;30.69;29.61;32.17;;
67304;Laerm;57660;51.436;5.978;2023-04-19T00:41:21;31.15;29.35;37.35;;
67304;Laerm;57660;51.436;5.978;2023-04-19T00:41:32;31.32;29.58;32.98;;
67304;Laerm;57660;51.436;5.978;2023-04-19T00:41:42;30.93;29.68;32.56;;
67304;Laerm;57660;51.436;5.978;2023-04-19T00:41:52;36.04;29.90;46.75;;
67304;Laerm;57660;51.436;5.978;2023-04-19T00:42:08;46.83;38.93;52.13;;
67304;Laerm;57660;51.436;5.978;2023-04-19T00:42:18;45.10;38.64;49.78;;
67304;Laerm;57660;51.436;5.978;2023-04-19T00:42:34;43.50;38.66;47.97;;
67304;Laerm;57660;51.436;5.978;2023-04-19T00:42:45;43.93;36.22;49.35;;
67304;Laerm;57660;51.436;5.978;2023-04-19T00:42:55;67.04;41.48;79.22;;
67304;Laerm;57660;51.436;5.978;2023-04-19T00:43:05;76.05;71.23;81.22;;
67304;Laerm;57660;51.436;5.978;2023-04-19T00:43:21;73.80;69.79;78.69;;
67304;Laerm;57660;51.436;5.978;2023-04-19T00:43:31;61.40;40.95;73.71;;
67304;Laerm;57660;51.436;5.978;2023-04-19T00:43:41;45.35;38.58;49.94;;
67304;Laerm;57660;51.436;5.978;2023-04-19T00:43:52;44.44;36.97;49.93;;
67304;Laerm;57660;51.436;5.978;2023-04-19T00:44:02;41.81;37.13;45.24;;
67304;Laerm;57660;51.436;5.978;2023-04-19T00:44:18;45.64;38.14;51.18;;
67304;Laerm;57660;51.436;5.978;2023-04-19T00:44:29;68.84;40.46;79.19;;
67304;Laerm;57660;51.436;5.978;2023-04-19T00:44:39;74.74;70.19;81.75;;
67304;Laerm;57660;51.436;5.978;2023-04-19T00:45:02;64.65;43.79;72.68;;
67304;Laerm;57660;51.436;5.978;2023-04-19T00:45:12;40.24;33.12;49.52;;
67304;Laerm;57660;51.436;5.978;2023-04-19T00:45:23;32.78;30.80;35.31;;
67304;Laerm;57660;51.436;5.978;2023-04-19T00:45:34;34.85;31.87;39.63;;
67304;Laerm;57660;51.436;5.978;2023-04-19T00:45:47;32.65;30.83;35.08;;
67304;Laerm;57660;51.436;5.978;2023-04-19T00:45:58;32.36;31.09;34.46;;
67304;Laerm;57660;51.436;5.978;2023-04-19T00:46:12;32.06;30.45;34.27;;
67304;Laerm;57660;51.436;5.978;2023-04-19T00:46:23;31.07;29.75;32.42;;
67304;Laerm;57660;51.436;5.978;2023-04-19T00:46:43;30.62;29.39;32.20;;
67304;Laerm;57660;51.436;5.978;2023-04-19T00:46:56;30.60;29.30;32.96;;
67304;Laerm;57660;51.436;5.978;2023-04-19T00:47:07;30.49;28.94;33.57;;
67304;Laerm;57660;51.436;5.978;2023-04-19T00:47:25;37.08;29.05;52.99;;
67304;Laerm;57660;51.436;5.978;2023-04-19T00:47:35;46.42;30.38;52.95;;
67304;Laerm;57660;51.436;5.978;2023-04-19T00:47:46;46.78;40.09;55.30;;
67304;Laerm;57660;51.436;5.978;2023-04-19T00:48:02;44.35;39.21;50.40;;
67304;Laerm;57660;51.436;5.978;2023-04-19T00:48:15;45.05;39.85;50.05;;
67304;Laerm;57660;51.436;5.978;2023-04-19T00:48:25;73.19;43.96;78.34;;
67304;Laerm;57660;51.436;5.978;2023-04-19T00:48:38;75.41;65.30;77.88;;
67304;Laerm;57660;51.436;5.978;2023-04-19T00:48:49;54.23;41.16;66.83;;
67304;Laerm;57660;51.436;5.978;2023-04-19T00:49:11;44.38;40.12;48.99;;
67304;Laerm;57660;51.436;5.978;2023-04-19T00:49:22;74.45;42.29;80.20;;
67304;Laerm;57660;51.436;5.978;2023-04-19T00:49:33;74.66;65.20;78.91;;
67304;Laerm;57660;51.436;5.978;2023-04-19T00:49:43;55.71;45.28;64.60;;
67304;Laerm;57660;51.436;5.978;2023-04-19T00:49:56;42.51;39.57;45.35;;
67304;Laerm;57660;51.436;5.978;2023-04-19T00:50:09;37.11;32.35;41.73;;
67304;Laerm;57660;51.436;5.978;2023-04-19T00:50:20;33.45;31.25;35.29;;
67304;Laerm;57660;51.436;5.978;2023-04-19T00:50:33;32.82;30.87;35.45;;
67304;Laerm;57660;51.436;5.978;2023-04-19T00:50:45;32.36;30.26;34.35;;
67304;Laerm;57660;51.436;5.978;2023-04-19T00:50:55;32.81;30.30;35.33;;
67304;Laerm;57660;51.436;5.978;2023-04-19T00:51:06;33.76;31.25;36.40;;
67304;Laerm;57660;51.436;5.978;2023-04-19T00:51:19;33.20;30.64;36.13;;
67304;Laerm;57660;51.436;5.978;2023-04-19T00:51:29;31.17;29.73;33.94;;
67304;Laerm;57660;51.436;5.978;2023-04-19T00:51:43;31.45;29.45;33.52;;
67304;Laerm;57660;51.436;5.978;2023-04-19T00:51:53;31.38;29.81;34.36;;
67304;Laerm;57660;51.436;5.978;2023-04-19T00:52:03;31.39;29.11;33.68;;
67304;Laerm;57660;51.436;5.978;2023-04-19T00:52:17;31.45;29.40;33.47;;
67304;Laerm;57660;51.436;5.978;2023-04-19T00:52:28;30.99;29.55;35.74;;
67304;Laerm;57660;51.436;5.978;2023-04-19T00:52:38;30.88;29.51;33.11;;
67304;Laerm;57660;51.436;5.978;2023-04-19T00:53:27;31.14;29.40;35.84;;
67304;Laerm;57660;51.436;5.978;2023-04-19T00:53:37;31.77;29.50;33.74;;
67304;Laerm;57660;51.436;5.978;2023-04-19T00:53:49;31.17;29.59;33.03;;
67304;Laerm;57660;51.436;5.978;2023-04-19T00:54:14;45.34;30.20;52.85;;
67304;Laerm;57660;51.436;5.978;2023-04-19T00:54:25;43.87;37.41;50.95;;
67304;Laerm;57660;51.436;5.978;2023-04-19T00:54:50;47.98;38.70;59.32;;
67304;Laerm;57660;51.436;5.978;2023-04-19T00:55:10;73.89;59.43;79.84;;
67304;Laerm;57660;51.436;5.978;2023-04-19T00:55:23;71.72;44.69;79.29;;
67304;Laerm;57660;51.436;5.978;2023-04-19T00:55:33;43.15;36.59;48.90;;
67304;Laerm;57660;51.436;5.978;2023-04-19T00:55:46;37.76;35.91;39.59;;
67304;Laerm;57660;51.436;5.978;2023-04-19T00:55:59;35.00;31.24;38.54;;
67304;Laerm;57660;51.436;5.978;2023-04-19T00:56:20;32.27;30.65;34.30;;
67304;Laerm;57660;51.436;5.978;2023-04-19T00:56:31;32.99;30.64;34.58;;
67304;Laerm;57660;51.436;5.978;2023-04-19T00:56:43;31.55;30.16;33.29;;
67304;Laerm;57660;51.436;5.978;2023-04-19T00:56:53;31.98;30.21;33.34;;
67304;Laerm;57660;51.436;5.978;2023-04-19T00:57:04;31.83;30.05;33.80;;
67304;Laerm;57660;51.436;5.978;2023-04-19T00:57:14;31.40;29.74;32.97;;
67304;Laerm;57660;51.436;5.978;2023-04-19T00:57:25;30.83;29.68;32.47;;
67304;Laerm;57660;51.436;5.978;2023-04-19T00:57:38;31.52;29.56;39.47;;
67304;Laerm;57660;51.436;5.978;2023-04-19T00:57:49;31.41;29.91;33.21;;
67304;Laerm;57660;51.436;5.978;2023-04-19T00:58:07;31.31;29.90;32.81;;
67304;Laerm;57660;51.436;5.978;2023-04-19T00:58:17;31.13;29.46;32.59;;
67304;Laerm;57660;51.436;5.978;2023-04-19T00:58:49;45.63;29.47;50.52;;
67304;Laerm;57660;51.436;5.978;2023-04-19T00:58:58;44.73;36.78;50.11;;
67304;Laerm;57660;51.436;5.978;2023-04-19T00:59:15;45.41;39.66;49.49;;
67304;Laerm;57660;51.436;5.978;2023-04-19T00:59:25;74.62;43.68;80.29;;
67304;Laerm;57660;51.436;5.978;2023-04-19T00:59:35;74.50;60.80;78.64;;
67304;Laerm;57660;51.436;5.978;2023-04-19T01:00:05;41.24;30.59;57.46;;
67304;Laerm;57660;51.436;5.978;2023-04-19T01:00:17;48.47;29.85;58.48;;
67304;Laerm;57660;51.436;5.978;2023-04-19T01:00:27;30.33;29.02;31.92;;
67304;Laerm;57660;51.436;5.978;2023-04-19T01:00:38;30.22;29.16;31.47;;
67304;Laerm;57660;51.436;5.978;2023-04-19T01:00:48;30.12;28.47;32.46;;
67304;Laerm;57660;51.436;5.978;2023-04-19T01:01:05;30.12;28.93;31.77;;
67304;Laerm;57660;51.436;5.978;2023-04-19T01:01:15;30.52;29.03;36.81;;
67304;Laerm;57660;51.436;5.978;2023-04-19T01:01:25;30.01;28.87;31.10;;
67304;Laerm;57660;51.436;5.978;2023-04-19T01:01:36;30.31;29.00;32.04;;
67304;Laerm;57660;51.436;5.978;2023-04-19T01:01:47;30.66;28.66;35.96;;
67304;Laerm;57660;51.436;5.978;2023-04-19T01:01:57;30.27;28.88;31.83;;
67304;Laerm;57660;51.436;5.978;2023-04-19T01:02:10;30.21;28.72;31.79;;
67304;Laerm;57660;51.436;5.978;2023-04-19T01:02:20;30.10;29.03;31.55;;
67304;Laerm;57660;51.436;5.978;2023-04-19T01:02:31;30.09;28.59;31.53;;
67304;Laerm;57660;51.436;5.978;2023-04-19T01:02:50;29.99;28.89;31.55;;
67304;Laerm;57660;51.436;5.978;2023-04-19T01:03:00;30.46;29.05;36.14;;
67304;Laerm;57660;51.436;5.978;2023-04-19T01:03:10;30.60;29.31;32.36;;
67304;Laerm;57660;51.436;5.978;2023-04-19T01:03:47;30.90;29.22;41.22;;
67304;Laerm;57660;51.436;5.978;2023-04-19T01:03:58;32.68;29.90;46.99;;
67304;Laerm;57660;51.436;5.978;2023-04-19T01:04:09;30.46;29.51;31.96;;
67304;Laerm;57660;51.436;5.978;2023-04-19T01:04:19;30.81;29.45;32.30;;
67304;Laerm;57660;51.436;5.978;2023-04-19T01:04:32;30.89;29.09;32.90;;
67304;Laerm;57660;51.436;5.978;2023-04-19T01:04:45;30.61;29.30;34.71;;
67304;Laerm;57660;51.436;5.978;2023-04-19T01:04:55;35.66;29.97;49.69;;
67304;Laerm;57660;51.436;5.978;2023-04-19T01:05:13;31.27;29.32;36.71;;
67304;Laerm;57660;51.436;5.978;2023-04-19T01:05:24;30.58;29.04;33.02;;
67304;Laerm;57660;51.436;5.978;2023-04-19T01:05:43;31.07;29.42;32.57;;
67304;Laerm;57660;51.436;5.978;2023-04-19T01:05:57;45.53;29.85;51.62;;
67304;Laerm;57660;51.436;5.978;2023-04-19T01:06:07;45.51;39.62;51.09;;
67304;Laerm;57660;51.436;5.978;2023-04-19T01:06:20;44.89;36.26;48.80;;
67304;Laerm;57660;51.436;5.978;2023-04-19T01:06:31;44.44;39.05;49.70;;
67304;Laerm;57660;51.436;5.978;2023-04-19T01:06:42;74.27;43.87;82.84;;
67304;Laerm;57660;51.436;5.978;2023-04-19T01:06:56;75.42;72.87;78.23;;
67304;Laerm;57660;51.436;5.978;2023-04-19T01:07:07;74.14;51.63;78.68;;
67304;Laerm;57660;51.436;5.978;2023-04-19T01:07:17;44.33;35.50;51.82;;
67304;Laerm;57660;51.436;5.978;2023-04-19T01:07:41;37.23;29.89;53.75;;
67304;Laerm;57660;51.436;5.978;2023-04-19T01:07:52;30.73;29.62;32.30;;
67304;Laerm;57660;51.436;5.978;2023-04-19T01:08:10;30.56;28.99;34.44;;
67304;Laerm;57660;51.436;5.978;2023-04-19T01:08:20;30.35;28.98;32.25;;
67304;Laerm;57660;51.436;5.978;2023-04-19T01:08:41;30.18;28.87;33.41;;
67304;Laerm;57660;51.436;5.978;2023-04-19T01:08:51;30.52;28.81;33.22;;
67304;Laerm;57660;51.436;5.978;2023-04-19T01:09:02;30.38;29.09;32.05;;
67304;Laerm;57660;51.436;5.978;2023-04-19T01:09:12;30.40;29.07;33.44;;
67304;Laerm;57660;51.436;5.978;2023-04-19T01:09:22;30.22;28.79;32.03;;